Time;durP1;ratioP1;P1;durP2;ratioP2;P2;SDS_P1;SDS_P2;PMS_P1;PMS_P2;Temp;Humidity;BMP_temperature;BMP_pressure;BME280_temperature;BME280_humidity;BME280_pressure;Samples;Min_cycle;Max_cycle;Signal;HPM_P1;HPM_P2
2021/12/22 00:01:30;;;;;;;32.90;28.73;;;-4.40;99.90;;;;;;5052235;28;20460;-76
2021/12/22 00:03:57;;;;;;;37.87;29.67;;;-4.30;99.90;;;;;;5065496;28;20569;-75
2021/12/22 00:06:26;;;;;;;39.03;29.30;;;-4.40;99.90;;;;;;5065565;28;20496;-75
2021/12/22 00:08:53;;;;;;;38.67;29.07;;;-4.40;99.90;;;;;;5066127;28;20441;-75
2021/12/22 00:11:20;;;;;;;32.00;27.53;;;-4.40;99.90;;;;;;5061762;28;20458;-76
2021/12/22 00:13:47;;;;;;;36.53;27.93;;;-4.50;99.90;;;;;;5057229;28;20456;-75
2021/12/22 00:16:14;;;;;;;35.00;28.63;;;-4.40;99.90;;;;;;5066685;28;20446;-76
2021/12/22 00:18:43;;;;;;;34.57;27.87;;;-4.50;99.90;;;;;;5059574;28;20811;-76
2021/12/22 00:21:10;;;;;;;32.57;27.33;;;-4.50;99.90;;;;;;5056119;28;20845;-75
2021/12/22 00:23:37;;;;;;;35.57;26.77;;;-4.50;99.90;;;;;;5062187;28;20508;-75
2021/12/22 00:26:04;;;;;;;33.10;27.00;;;-4.60;99.90;;;;;;5066967;28;20834;-75
2021/12/22 00:28:32;;;;;;;33.07;26.57;;;-4.60;99.90;;;;;;5053597;28;20452;-75
2021/12/22 00:31:00;;;;;;;33.40;28.00;;;-4.60;99.90;;;;;;5067216;28;20442;-76
2021/12/22 00:33:28;;;;;;;38.47;29.20;;;-4.60;99.90;;;;;;5064043;28;20851;-76
2021/12/22 00:35:56;;;;;;;31.80;27.57;;;-4.70;99.90;;;;;;5061760;28;20496;-76
2021/12/22 00:38:23;;;;;;;33.77;27.90;;;-4.70;99.90;;;;;;5067064;28;20446;-75
2021/12/22 00:40:50;;;;;;;35.67;27.93;;;-4.80;99.90;;;;;;5061437;28;20436;-75
2021/12/22 00:43:19;;;;;;;34.00;27.03;;;-4.80;99.90;;;;;;5067243;28;21104;-76
2021/12/22 00:45:48;;;;;;;32.07;26.60;;;-4.80;99.90;;;;;;5061136;28;20441;-76
2021/12/22 00:48:15;;;;;;;32.43;27.37;;;-4.80;99.90;;;;;;5061022;28;20448;-75
2021/12/22 00:50:42;;;;;;;35.73;28.63;;;-4.80;99.90;;;;;;5053213;28;20450;-76
2021/12/22 00:53:10;;;;;;;34.60;28.17;;;-4.70;99.90;;;;;;5059772;28;20474;-75
2021/12/22 00:55:37;;;;;;;38.07;29.43;;;-4.80;99.90;;;;;;5054193;28;21001;-75
2021/12/22 00:58:04;;;;;;;32.13;27.27;;;-4.80;99.90;;;;;;5060899;28;20445;-76
2021/12/22 01:00:31;;;;;;;31.63;27.03;;;-4.90;99.90;;;;;;5056883;28;20449;-75
2021/12/22 01:02:58;;;;;;;34.37;27.60;;;-4.90;99.90;;;;;;5051079;28;20476;-76
2021/12/22 01:05:26;;;;;;;39.53;28.83;;;-4.90;99.90;;;;;;5060178;28;20425;-76
2021/12/22 01:07:53;;;;;;;30.83;27.17;;;-4.90;99.90;;;;;;5052905;28;20442;-75
2021/12/22 01:10:23;;;;;;;34.87;28.60;;;-4.90;99.90;;;;;;5060836;28;20444;-75
2021/12/22 01:12:52;;;;;;;36.73;28.43;;;-4.90;99.90;;;;;;5060563;28;20506;-76
2021/12/22 01:15:19;;;;;;;31.57;26.87;;;-4.80;99.90;;;;;;5056578;28;20529;-76
2021/12/22 01:17:49;;;;;;;33.50;27.27;;;-4.80;99.90;;;;;;5059922;28;20441;-75
2021/12/22 01:20:23;;;;;;;34.87;27.87;;;-4.80;99.90;;;;;;5063216;28;20428;-75
2021/12/22 01:22:51;;;;;;;31.77;26.57;;;-4.80;99.90;;;;;;5063971;28;20476;-76
2021/12/22 01:25:21;;;;;;;34.97;27.40;;;-4.90;99.90;;;;;;5052344;28;20453;-75
2021/12/22 01:27:50;;;;;;;31.87;26.47;;;-4.90;99.90;;;;;;5061245;28;20453;-75
2021/12/22 01:30:20;;;;;;;37.57;27.73;;;-4.80;99.90;;;;;;5061755;28;20442;-75
2021/12/22 01:32:48;;;;;;;29.83;26.63;;;-4.80;99.90;;;;;;5063556;28;21014;-75
2021/12/22 01:35:18;;;;;;;33.67;26.73;;;-4.80;99.90;;;;;;5063242;28;20539;-75
2021/12/22 01:37:45;;;;;;;33.00;26.43;;;-4.90;99.90;;;;;;5064652;28;20443;-75
2021/12/22 01:40:12;;;;;;;33.07;26.33;;;-4.90;99.90;;;;;;5053925;28;20437;-75
2021/12/22 01:42:41;;;;;;;35.60;28.03;;;-4.90;99.90;;;;;;5064076;28;20483;-76
2021/12/22 01:45:26;;;;;;;32.47;26.37;;;-4.90;99.90;;;;;;5063476;28;20441;-75
2021/12/22 01:50:52;;;;;;;35.73;27.27;;;-5.00;99.90;;;;;;4982038;28;20492;-75
2021/12/22 01:53:35;;;;;;;33.90;26.23;;;-4.90;99.90;;;;;;5034142;28;20522;-76
2021/12/22 01:56:11;;;;;;;32.03;25.57;;;-5.00;99.90;;;;;;5061630;28;20814;-76
2021/12/22 01:58:42;;;;;;;35.50;28.00;;;-5.10;99.90;;;;;;5049906;28;20577;-75
2021/12/22 02:01:11;;;;;;;32.23;26.70;;;-5.20;99.90;;;;;;5059765;28;20460;-76
2021/12/22 02:03:38;;;;;;;32.07;26.90;;;-5.30;99.90;;;;;;5059684;28;20858;-76
2021/12/22 02:06:08;;;;;;;36.70;27.37;;;-5.20;99.90;;;;;;5061608;28;20940;-76
2021/12/22 02:08:35;;;;;;;32.73;27.33;;;-5.20;99.90;;;;;;5060766;28;20447;-76
2021/12/22 02:11:03;;;;;;;34.23;27.43;;;-5.30;99.90;;;;;;5064673;28;20433;-75
2021/12/22 02:13:34;;;;;;;28.97;25.97;;;-5.30;99.90;;;;;;5050942;28;20471;-76
2021/12/22 02:16:06;;;;;;;35.77;27.50;;;-5.40;99.90;;;;;;5057104;28;20446;-76
2021/12/22 02:18:35;;;;;;;31.60;25.77;;;-5.40;99.90;;;;;;5060918;28;20449;-76
2021/12/22 02:21:04;;;;;;;32.57;26.70;;;-5.40;99.90;;;;;;5060806;28;20526;-75
2021/12/22 02:23:32;;;;;;;36.60;28.60;;;-5.40;99.90;;;;;;5056765;28;20504;-76
2021/12/22 02:26:05;;;;;;;34.47;26.97;;;-5.30;99.90;;;;;;5064500;28;20494;-75
2021/12/22 02:28:35;;;;;;;30.37;26.07;;;-5.40;99.90;;;;;;5047024;28;20512;-75
2021/12/22 02:31:02;;;;;;;35.10;26.90;;;-5.40;99.90;;;;;;5059793;28;20450;-75
2021/12/22 02:33:35;;;;;;;33.70;25.97;;;-5.40;99.90;;;;;;5064203;28;20456;-76
2021/12/22 02:36:21;;;;;;;36.60;27.67;;;-5.40;99.90;;;;;;5059399;28;20438;-77
2021/12/22 02:38:51;;;;;;;31.63;27.13;;;-5.40;99.90;;;;;;5055621;28;20529;-77
2021/12/22 02:41:19;;;;;;;30.47;26.77;;;-5.40;99.90;;;;;;5061710;28;20429;-77
2021/12/22 02:43:49;;;;;;;34.77;26.60;;;-5.50;99.90;;;;;;5060379;28;20972;-77
2021/12/22 02:46:19;;;;;;;34.77;27.67;;;-5.50;99.90;;;;;;5053141;28;20805;-77
2021/12/22 02:48:47;;;;;;;31.43;26.30;;;-5.60;99.90;;;;;;5057969;28;20467;-77
2021/12/22 02:51:16;;;;;;;39.13;28.03;;;-5.60;99.90;;;;;;5067619;28;20448;-76
2021/12/22 02:53:49;;;;;;;34.37;27.60;;;-5.60;99.90;;;;;;5066101;28;20453;-74
2021/12/22 02:56:32;;;;;;;34.97;27.60;;;-5.60;99.90;;;;;;5072213;28;20429;-77
2021/12/22 02:59:07;;;;;;;33.33;25.93;;;-5.50;99.90;;;;;;5071079;28;20981;-76
2021/12/22 03:04:25;;;;;;;33.73;26.87;;;-5.60;99.90;;;;;;5057061;28;20658;-75
2021/12/22 03:06:57;;;;;;;31.03;26.33;;;-5.60;99.90;;;;;;5058325;28;20949;-75
2021/12/22 03:09:27;;;;;;;29.63;26.13;;;-5.60;99.90;;;;;;5067414;28;20500;-76
2021/12/22 03:11:57;;;;;;;31.60;26.03;;;-5.60;99.90;;;;;;5060505;28;20445;-76
2021/12/22 03:14:25;;;;;;;36.30;27.97;;;-5.60;99.90;;;;;;5059035;28;20450;-76
2021/12/22 03:16:52;;;;;;;32.07;28.40;;;-5.60;99.90;;;;;;5056476;28;20446;-76
2021/12/22 03:19:21;;;;;;;31.40;26.67;;;-5.60;99.90;;;;;;5052991;28;20458;-75
2021/12/22 03:21:52;;;;;;;33.80;27.33;;;-5.70;99.90;;;;;;5054953;28;20456;-77
2021/12/22 03:24:22;;;;;;;31.70;27.17;;;-5.70;99.90;;;;;;5059833;28;21009;-76
2021/12/22 03:26:49;;;;;;;37.27;28.73;;;-5.70;99.90;;;;;;5057210;28;20439;-76
2021/12/22 03:29:18;;;;;;;31.40;26.80;;;-5.70;99.90;;;;;;5062058;28;20445;-76
2021/12/22 03:31:46;;;;;;;29.37;26.23;;;-5.70;99.90;;;;;;5061546;28;20447;-76
2021/12/22 03:34:14;;;;;;;34.97;28.77;;;-5.70;99.90;;;;;;5061619;28;20476;-77
2021/12/22 03:36:42;;;;;;;38.20;28.33;;;-5.80;99.90;;;;;;5058406;28;20540;-76
2021/12/22 03:39:12;;;;;;;35.37;27.57;;;-5.70;99.90;;;;;;5056442;28;20451;-77
2021/12/22 03:41:40;;;;;;;37.13;28.43;;;-5.80;99.90;;;;;;5065920;28;20438;-79
2021/12/22 03:44:08;;;;;;;35.83;28.63;;;-5.80;99.90;;;;;;5058624;28;20908;-77
2021/12/22 03:46:36;;;;;;;36.73;27.67;;;-5.90;99.90;;;;;;5049264;28;20838;-77
2021/12/22 03:49:04;;;;;;;38.90;28.53;;;-5.90;99.90;;;;;;5053961;28;20446;-77
2021/12/22 03:51:31;;;;;;;33.50;26.87;;;-6.00;99.90;;;;;;5059184;28;20456;-76
2021/12/22 03:53:58;;;;;;;37.93;26.83;;;-6.00;99.90;;;;;;5051831;28;20979;-77
2021/12/22 03:56:25;;;;;;;35.40;27.03;;;-6.00;99.90;;;;;;5053648;28;20520;-77
2021/12/22 03:58:53;;;;;;;34.80;27.47;;;-5.90;99.90;;;;;;5060696;28;20440;-77
2021/12/22 04:01:20;;;;;;;37.83;28.00;;;-5.90;99.90;;;;;;5063044;28;20487;-77
2021/12/22 04:03:50;;;;;;;33.47;26.57;;;-5.80;99.90;;;;;;5060875;28;20480;-77
2021/12/22 04:06:17;;;;;;;29.43;26.40;;;-5.80;99.90;;;;;;5056303;28;20447;-78
2021/12/22 04:08:44;;;;;;;33.67;26.63;;;-5.80;99.90;;;;;;5061439;28;20438;-77
2021/12/22 04:11:11;;;;;;;36.53;27.17;;;-5.80;99.90;;;;;;5061142;28;20863;-78
2021/12/22 04:13:38;;;;;;;35.03;27.57;;;-5.90;99.90;;;;;;5062166;28;20454;-77
2021/12/22 04:16:06;;;;;;;34.30;29.37;;;-5.90;99.90;;;;;;5062221;28;20457;-79
2021/12/22 04:18:33;;;;;;;35.17;27.00;;;-5.90;99.90;;;;;;5060834;28;20451;-78
2021/12/22 04:21:00;;;;;;;33.60;27.00;;;-5.90;99.90;;;;;;5051428;28;20455;-79
2021/12/22 04:23:27;;;;;;;33.47;25.67;;;-5.80;99.90;;;;;;5051198;28;20481;-76
2021/12/22 04:25:54;;;;;;;30.00;25.13;;;-5.90;99.90;;;;;;5060205;28;20436;-79
2021/12/22 04:28:21;;;;;;;37.80;27.80;;;-5.90;99.90;;;;;;5061379;28;20456;-77
2021/12/22 04:30:50;;;;;;;34.30;26.83;;;-5.90;99.90;;;;;;5057470;28;20439;-78
2021/12/22 04:33:19;;;;;;;31.27;26.93;;;-6.00;99.90;;;;;;5062063;28;20474;-77
2021/12/22 04:35:46;;;;;;;31.87;27.07;;;-6.00;99.90;;;;;;5052149;28;20511;-77
2021/12/22 04:38:13;;;;;;;31.57;27.33;;;-6.00;99.90;;;;;;5061536;28;20485;-77
2021/12/22 04:40:40;;;;;;;37.90;27.50;;;-6.00;99.90;;;;;;5063571;28;20464;-77
2021/12/22 04:43:07;;;;;;;33.47;28.00;;;-6.00;99.90;;;;;;5060256;28;20467;-77
2021/12/22 04:45:34;;;;;;;33.67;28.03;;;-6.10;99.90;;;;;;5062005;28;20466;-78
2021/12/22 04:48:01;;;;;;;32.13;26.60;;;-6.10;99.90;;;;;;5059833;28;20449;-77
2021/12/22 04:50:32;;;;;;;31.07;26.83;;;-6.10;99.90;;;;;;5059679;28;20442;-77
2021/12/22 04:53:02;;;;;;;34.53;26.90;;;-6.10;99.90;;;;;;5060515;28;20461;-77
2021/12/22 04:55:30;;;;;;;37.27;27.40;;;-6.00;99.90;;;;;;5046967;28;20576;-77
2021/12/22 04:57:58;;;;;;;34.30;27.00;;;-6.00;99.90;;;;;;5066599;28;20437;-78
2021/12/22 05:00:27;;;;;;;31.17;26.13;;;-6.00;99.90;;;;;;5054989;28;20455;-79
2021/12/22 05:02:55;;;;;;;34.40;27.90;;;-5.90;99.90;;;;;;5059539;28;20469;-78
2021/12/22 05:05:22;;;;;;;30.00;25.53;;;-6.00;99.90;;;;;;5062626;28;20483;-78
2021/12/22 05:07:50;;;;;;;32.03;26.80;;;-6.00;99.90;;;;;;5059512;28;20454;-77
2021/12/22 05:10:21;;;;;;;33.27;26.47;;;-6.00;99.90;;;;;;5061112;28;20445;-75
2021/12/22 05:12:48;;;;;;;33.27;26.63;;;-6.00;99.90;;;;;;5059454;28;20456;-77
2021/12/22 05:15:17;;;;;;;29.57;24.97;;;-6.00;99.90;;;;;;5053322;28;20948;-79
2021/12/22 05:18:12;;;;;;;31.90;25.93;;;-6.00;99.90;;;;;;5059549;28;20460;-77
2021/12/22 05:20:38;;;;;;;37.33;26.30;;;-6.00;99.90;;;;;;5058420;28;20477;-77
2021/12/22 05:23:06;;;;;;;31.57;25.77;;;-6.10;99.90;;;;;;5058034;28;20458;-77
2021/12/22 05:25:33;;;;;;;29.23;23.67;;;-6.00;99.90;;;;;;5061761;28;20695;-77
2021/12/22 05:28:00;;;;;;;34.63;25.73;;;-6.10;99.90;;;;;;5060331;28;20430;-78
2021/12/22 05:30:27;;;;;;;28.07;25.10;;;-6.10;99.90;;;;;;5061760;28;20454;-77
2021/12/22 05:32:55;;;;;;;28.17;24.77;;;-6.10;99.90;;;;;;5052904;28;20477;-77
2021/12/22 05:35:23;;;;;;;30.97;24.63;;;-6.20;99.90;;;;;;5061650;28;20457;-77
2021/12/22 05:37:50;;;;;;;34.70;26.10;;;-6.20;99.90;;;;;;5056219;28;20446;-77
2021/12/22 05:40:19;;;;;;;31.07;26.50;;;-6.20;99.90;;;;;;5060791;28;20450;-78
2021/12/22 05:42:46;;;;;;;29.03;25.17;;;-6.10;99.90;;;;;;5060471;28;20969;-77
2021/12/22 05:45:13;;;;;;;33.13;26.73;;;-6.10;99.90;;;;;;5063009;28;20484;-77
2021/12/22 05:47:39;;;;;;;29.30;24.40;;;-6.20;99.90;;;;;;5052582;28;20438;-78
2021/12/22 05:50:07;;;;;;;28.57;25.00;;;-6.20;99.90;;;;;;5060347;28;20438;-78
2021/12/22 05:52:35;;;;;;;32.53;25.13;;;-6.20;99.90;;;;;;5058704;28;20489;-77
2021/12/22 05:55:02;;;;;;;29.70;24.73;;;-6.20;99.90;;;;;;5056491;28;20434;-78
2021/12/22 05:57:30;;;;;;;30.20;25.20;;;-6.20;99.90;;;;;;5050677;28;20450;-77
2021/12/22 05:59:57;;;;;;;31.50;24.20;;;-6.20;99.90;;;;;;5060034;28;20438;-77
2021/12/22 06:02:25;;;;;;;27.53;24.33;;;-6.20;99.90;;;;;;5061595;28;20461;-78
2021/12/22 06:04:52;;;;;;;30.00;24.47;;;-6.30;99.90;;;;;;5054097;28;20483;-79
2021/12/22 06:07:19;;;;;;;35.73;25.13;;;-6.20;99.90;;;;;;5060598;28;20503;-79
2021/12/22 06:09:45;;;;;;;31.73;25.27;;;-6.20;99.90;;;;;;5060087;28;20437;-79
2021/12/22 06:12:12;;;;;;;30.00;24.70;;;-6.20;99.90;;;;;;5060199;28;20827;-78
2021/12/22 06:14:41;;;;;;;30.73;23.93;;;-6.20;99.90;;;;;;5055921;28;20438;-78
2021/12/22 06:17:08;;;;;;;29.37;26.30;;;-6.20;99.90;;;;;;5053750;28;20462;-80
2021/12/22 06:19:34;;;;;;;35.27;27.67;;;-6.20;99.90;;;;;;5062705;28;20458;-79
2021/12/22 06:22:01;;;;;;;30.60;26.13;;;-6.20;99.90;;;;;;5063709;28;20456;-79
2021/12/22 06:24:29;;;;;;;30.10;24.73;;;-6.10;99.90;;;;;;5050557;28;20473;-80
2021/12/22 06:26:57;;;;;;;26.63;23.83;;;-6.10;99.90;;;;;;5058571;28;20460;-79
2021/12/22 06:29:24;;;;;;;28.47;25.40;;;-6.10;99.90;;;;;;5058548;28;20450;-76
2021/12/22 06:31:52;;;;;;;38.10;26.03;;;-6.10;99.90;;;;;;5059768;28;20430;-76
2021/12/22 06:34:20;;;;;;;32.40;26.10;;;-6.20;99.90;;;;;;5060181;28;20464;-77
2021/12/22 06:36:46;;;;;;;30.07;23.83;;;-6.30;99.90;;;;;;5055870;28;20713;-76
2021/12/22 06:39:14;;;;;;;28.67;25.33;;;-6.40;99.90;;;;;;5053258;28;20488;-77
2021/12/22 06:41:41;;;;;;;30.27;25.30;;;-6.40;99.90;;;;;;5061429;28;20814;-77
2021/12/22 06:44:08;;;;;;;27.43;23.67;;;-6.50;99.90;;;;;;5054020;28;20482;-77
2021/12/22 06:46:35;;;;;;;29.10;23.17;;;-6.50;99.90;;;;;;5057070;28;20450;-77
2021/12/22 06:49:03;;;;;;;28.67;24.67;;;-6.50;99.90;;;;;;5059043;28;20454;-77
2021/12/22 06:51:30;;;;;;;31.60;25.70;;;-6.50;99.90;;;;;;5052067;28;20431;-77
2021/12/22 06:53:57;;;;;;;32.47;26.50;;;-6.50;99.90;;;;;;5066952;28;20946;-77
2021/12/22 06:56:24;;;;;;;28.40;23.43;;;-6.50;99.90;;;;;;5071217;28;20809;-76
2021/12/22 06:58:51;;;;;;;30.37;25.50;;;-6.50;99.90;;;;;;5069335;28;20435;-77
2021/12/22 07:01:20;;;;;;;27.33;24.43;;;-6.40;99.90;;;;;;5058162;28;20456;-76
2021/12/22 07:03:47;;;;;;;30.07;26.33;;;-6.40;99.90;;;;;;5057237;28;20981;-77
2021/12/22 07:06:16;;;;;;;30.43;25.57;;;-6.30;99.90;;;;;;5056446;28;20473;-76
2021/12/22 07:08:44;;;;;;;29.10;24.00;;;-6.30;99.90;;;;;;5063345;28;20440;-76
2021/12/22 07:11:11;;;;;;;29.80;24.90;;;-6.30;99.90;;;;;;5066071;28;20963;-77
2021/12/22 07:13:38;;;;;;;33.77;25.13;;;-6.40;99.90;;;;;;5062394;28;20491;-77
2021/12/22 07:16:05;;;;;;;27.30;24.40;;;-6.40;99.90;;;;;;5062761;28;20457;-76
2021/12/22 07:18:32;;;;;;;31.97;25.37;;;-6.40;99.90;;;;;;5057387;28;20452;-77
2021/12/22 07:20:59;;;;;;;30.30;25.20;;;-6.40;99.90;;;;;;5061560;28;20457;-77
2021/12/22 07:23:28;;;;;;;28.83;25.83;;;-6.30;99.90;;;;;;5070960;28;20481;-77
2021/12/22 07:25:55;;;;;;;29.40;25.33;;;-6.30;99.90;;;;;;5057851;28;20507;-79
2021/12/22 07:28:22;;;;;;;30.73;24.97;;;-6.30;99.90;;;;;;5057538;28;20450;-77
2021/12/22 07:30:49;;;;;;;29.27;23.97;;;-6.30;99.90;;;;;;5066007;28;20433;-77
2021/12/22 07:33:15;;;;;;;30.10;24.40;;;-6.20;99.90;;;;;;5056922;28;20477;-76
2021/12/22 07:35:46;;;;;;;32.60;26.30;;;-6.20;99.90;;;;;;5059635;28;20445;-77
2021/12/22 07:38:27;;;;;;;31.93;25.73;;;-6.20;99.90;;;;;;5062449;28;20451;-76
2021/12/22 07:40:56;;;;;;;36.03;25.13;;;-6.20;99.90;;;;;;5061002;28;20457;-77
2021/12/22 07:43:23;;;;;;;28.37;23.23;;;-6.10;99.90;;;;;;5062263;28;20493;-77
2021/12/22 07:45:51;;;;;;;29.17;25.77;;;-6.10;99.90;;;;;;5062318;28;20474;-78
2021/12/22 07:48:18;;;;;;;30.97;24.43;;;-6.00;99.90;;;;;;5056045;28;20482;-77
2021/12/22 07:50:45;;;;;;;30.00;25.90;;;-6.00;99.90;;;;;;5058703;28;20454;-76
2021/12/22 07:53:12;;;;;;;30.90;25.30;;;-5.90;99.90;;;;;;5063482;28;20471;-76
2021/12/22 07:55:39;;;;;;;28.90;24.77;;;-5.80;99.90;;;;;;5059322;28;20448;-76
2021/12/22 07:58:08;;;;;;;29.67;26.00;;;-5.80;99.90;;;;;;5062407;28;20822;-77
2021/12/22 08:00:35;;;;;;;29.87;24.43;;;-5.60;99.90;;;;;;5064645;28;20442;-76
2021/12/22 08:03:02;;;;;;;35.27;26.53;;;-5.50;99.90;;;;;;5061853;28;20458;-76
2021/12/22 08:05:29;;;;;;;29.83;24.73;;;-5.40;99.90;;;;;;5091158;28;20847;-77
2021/12/22 08:07:57;;;;;;;28.73;24.40;;;-5.10;99.90;;;;;;5063736;28;20448;-77
2021/12/22 08:10:24;;;;;;;36.97;27.50;;;-4.90;99.90;;;;;;5059042;28;20525;-76
2021/12/22 08:12:51;;;;;;;29.90;26.50;;;-4.60;99.90;;;;;;5059928;28;20978;-77
2021/12/22 08:15:19;;;;;;;32.40;26.90;;;-4.40;99.90;;;;;;5061500;28;20655;-77
2021/12/22 08:18:08;;;;;;;31.53;25.87;;;-4.10;99.90;;;;;;5061794;28;20443;-79
2021/12/22 08:20:35;;;;;;;30.43;25.23;;;-3.90;99.90;;;;;;5053048;28;20449;-77
2021/12/22 08:23:02;;;;;;;30.33;26.93;;;-3.70;99.90;;;;;;5060462;28;20480;-79
2021/12/22 08:25:29;;;;;;;29.90;25.87;;;-3.60;99.90;;;;;;5057715;28;20504;-77
2021/12/22 08:27:56;;;;;;;29.13;25.63;;;-3.60;99.90;;;;;;5054696;28;20468;-78
2021/12/22 08:30:24;;;;;;;29.27;26.17;;;-3.50;99.90;;;;;;5064410;28;20441;-76
2021/12/22 08:32:51;;;;;;;29.87;26.30;;;-3.30;99.90;;;;;;5077960;22;20499;-85
2021/12/22 08:35:20;;;;;;;29.03;25.87;;;-3.40;99.90;;;;;;5020667;28;20474;-84
2021/12/22 08:40:32;;;;;;;28.20;24.27;;;-2.90;99.90;;;;;;5025830;28;20554;-85
2021/12/22 08:42:59;;;;;;;27.27;24.23;;;-2.60;99.90;;;;;;5017629;28;20471;-86
2021/12/22 08:45:27;;;;;;;27.87;24.80;;;-2.50;99.90;;;;;;5019039;28;20475;-85
2021/12/22 08:47:55;;;;;;;27.33;24.33;;;-2.30;99.90;;;;;;5018580;28;20435;-85
2021/12/22 08:50:26;;;;;;;27.40;24.77;;;-2.20;99.90;;;;;;5018701;28;20428;-85
2021/12/22 08:52:54;;;;;;;27.83;24.90;;;-2.10;99.90;;;;;;5018854;28;20458;-85
2021/12/22 08:55:22;;;;;;;23.70;21.33;;;-2.00;99.90;;;;;;5033688;28;20447;-86
2021/12/22 08:57:49;;;;;;;26.40;23.70;;;-2.00;99.90;;;;;;5033369;28;20513;-86
2021/12/22 09:00:17;;;;;;;28.07;25.33;;;-2.00;99.90;;;;;;5019858;28;20952;-85
2021/12/22 09:02:49;;;;;;;27.73;24.40;;;-2.10;99.90;;;;;;5017935;28;20950;-85
2021/12/22 09:05:23;;;;;;;26.97;24.17;;;-2.10;99.90;;;;;;5017145;28;20859;-85
2021/12/22 09:07:51;;;;;;;26.10;23.43;;;-2.10;99.90;;;;;;5018558;28;20904;-85
2021/12/22 09:10:22;;;;;;;28.43;25.43;;;-2.10;99.90;;;;;;5016863;28;20460;-83
2021/12/22 09:13:05;;;;;;;29.77;25.37;;;-2.10;99.90;;;;;;5016401;28;20479;-85
2021/12/22 09:15:40;;;;;;;28.13;25.33;;;-2.10;99.90;;;;;;5016793;28;20443;-85
2021/12/22 09:18:25;;;;;;;28.87;25.93;;;-2.10;99.90;;;;;;5017448;28;20420;-84
2021/12/22 09:20:57;;;;;;;26.23;23.53;;;-2.20;99.90;;;;;;5015974;28;20478;-84
2021/12/22 09:23:27;;;;;;;25.80;23.37;;;-2.20;99.90;;;;;;5015633;28;20983;-84
2021/12/22 09:25:59;;;;;;;26.87;24.07;;;-2.10;99.90;;;;;;5014768;28;20464;-85
2021/12/22 09:28:33;;;;;;;26.23;23.43;;;-2.20;99.90;;;;;;5015188;28;20455;-86
2021/12/22 09:34:28;;;;;;;26.00;23.27;;;-2.10;99.90;;;;;;5013577;28;20471;-86
2021/12/22 09:36:56;;;;;;;26.10;23.40;;;-2.10;99.90;;;;;;5015444;28;20436;-85
2021/12/22 09:39:27;;;;;;;27.30;24.40;;;-2.10;99.90;;;;;;5032411;28;20957;-86
2021/12/22 09:41:59;;;;;;;28.97;25.83;;;-2.00;99.90;;;;;;5016098;28;20452;-85
2021/12/22 09:44:32;;;;;;;30.07;25.43;;;-2.00;99.90;;;;;;5017413;28;20482;-85
2021/12/22 09:47:02;;;;;;;28.20;25.40;;;-2.00;99.90;;;;;;4997472;28;20487;-86
2021/12/22 09:49:48;;;;;;;27.90;24.90;;;-1.90;99.90;;;;;;4996380;28;20455;-86
2021/12/22 09:52:19;;;;;;;26.83;24.00;;;-1.90;99.90;;;;;;4997707;28;20444;-86
2021/12/22 09:54:48;;;;;;;30.17;25.53;;;-1.80;99.90;;;;;;5008420;28;20463;-85
2021/12/22 09:57:21;;;;;;;30.40;26.37;;;-1.70;99.90;;;;;;5016106;28;20451;-85
2021/12/22 09:59:57;;;;;;;28.13;25.13;;;-1.70;99.90;;;;;;5030706;28;20436;-86
2021/12/22 10:02:29;;;;;;;29.50;25.53;;;-1.70;99.90;;;;;;5015515;28;20486;-86
2021/12/22 10:05:03;;;;;;;30.30;25.80;;;-1.70;99.90;;;;;;5032851;28;20454;-86
2021/12/22 10:07:38;;;;;;;28.50;25.33;;;-1.60;99.90;;;;;;5016141;28;20956;-85
2021/12/22 10:10:14;;;;;;;29.83;24.60;;;-1.60;99.90;;;;;;5005129;28;20509;-86
2021/12/22 10:12:50;;;;;;;28.17;25.10;;;-1.60;99.90;;;;;;5016802;28;20475;-86
2021/12/22 10:15:36;;;;;;;30.60;25.33;;;-1.50;99.90;;;;;;5017670;28;20486;-86
2021/12/22 10:21:26;;;;;;;31.17;25.43;;;-1.50;99.90;;;;;;5018070;28;20475;-85
2021/12/22 10:24:10;;;;;;;28.70;24.17;;;-1.40;99.90;;;;;;5016304;28;20526;-86
2021/12/22 10:26:47;;;;;;;28.57;24.33;;;-1.40;99.90;;;;;;4999632;28;20476;-85
2021/12/22 10:29:30;;;;;;;26.67;23.20;;;-1.30;99.90;;;;;;5017181;28;20494;-85
2021/12/22 10:32:09;;;;;;;26.60;23.47;;;-1.30;99.90;;;;;;5017342;28;20455;-85
2021/12/22 10:34:57;;;;;;;26.73;24.03;;;-1.20;99.90;;;;;;5017092;28;20467;-85
2021/12/22 10:37:41;;;;;;;25.40;22.73;;;-1.20;99.90;;;;;;5018990;28;20428;-86
2021/12/22 10:40:33;;;;;;;26.10;23.17;;;-1.10;99.90;;;;;;5020462;28;20546;-85
2021/12/22 10:43:12;;;;;;;24.87;22.23;;;-1.00;99.90;;;;;;5019035;28;20467;-85
2021/12/22 10:45:51;;;;;;;25.60;22.97;;;-1.00;99.90;;;;;;5018848;28;20874;-86
2021/12/22 10:51:20;;;;;;;27.80;24.13;;;-1.00;99.90;;;;;;5020299;28;20845;-86
2021/12/22 10:53:53;;;;;;;26.67;23.83;;;-0.90;99.90;;;;;;5019822;28;20478;-86
2021/12/22 10:56:27;;;;;;;27.97;23.57;;;-0.90;99.90;;;;;;5020041;28;20440;-85
2021/12/22 10:59:08;;;;;;;25.83;23.17;;;-0.90;99.90;;;;;;5018973;28;20451;-86
2021/12/22 11:01:48;;;;;;;26.03;22.83;;;-0.90;99.90;;;;;;5019782;28;20909;-86
2021/12/22 11:04:28;;;;;;;25.47;22.77;;;-0.90;99.90;;;;;;5020123;28;20463;-85
2021/12/22 11:06:58;;;;;;;26.40;23.60;;;-0.90;99.90;;;;;;5005726;28;20468;-85
2021/12/22 11:09:34;;;;;;;25.70;23.10;;;-0.80;99.90;;;;;;4999928;28;20448;-85
2021/12/22 11:12:13;;;;;;;28.53;23.77;;;-0.80;99.90;;;;;;4999887;28;20759;-86
2021/12/22 11:14:48;;;;;;;26.53;23.70;;;-0.80;99.90;;;;;;5018287;28;20521;-86
2021/12/22 11:17:21;;;;;;;24.97;22.40;;;-0.70;99.90;;;;;;5017800;28;20443;-86
2021/12/22 11:19:58;;;;;;;24.23;21.93;;;-0.70;99.90;;;;;;5000782;28;21011;-86
2021/12/22 11:22:47;;;;;;;24.13;21.70;;;-0.60;99.90;;;;;;5000286;28;20440;-86
2021/12/22 11:25:32;;;;;;;24.73;21.83;;;-0.60;99.90;;;;;;5000258;28;20511;-86
2021/12/22 11:28:01;;;;;;;24.53;22.07;;;-0.60;99.90;;;;;;5000184;28;20444;-87
2021/12/22 11:30:42;;;;;;;24.10;21.53;;;-0.50;99.90;;;;;;5002292;28;20444;-87
2021/12/22 11:33:19;;;;;;;25.00;22.20;;;-0.50;99.90;;;;;;5003010;28;20540;-87
2021/12/22 11:35:48;;;;;;;24.30;21.77;;;-0.50;99.90;;;;;;5000914;28;20444;-86
2021/12/22 11:38:17;;;;;;;24.83;22.43;;;-0.50;99.90;;;;;;5003564;28;20961;-86
2021/12/22 11:41:02;;;;;;;26.07;23.47;;;-0.40;99.90;;;;;;5020679;28;20487;-86
2021/12/22 11:43:31;;;;;;;24.67;22.20;;;-0.30;99.90;;;;;;5020232;28;20494;-87
2021/12/22 11:46:05;;;;;;;24.37;21.90;;;-0.30;99.90;;;;;;5020475;28;20499;-85
2021/12/22 11:48:48;;;;;;;24.13;21.73;;;-0.30;99.90;;;;;;5018840;28;20439;-88
2021/12/22 11:51:25;;;;;;;25.13;22.47;;;-0.30;99.90;;;;;;5020101;28;20454;-85
2021/12/22 11:53:59;;;;;;;24.43;22.00;;;-0.30;99.90;;;;;;5020180;28;20605;-85
2021/12/22 11:56:45;;;;;;;24.23;21.77;;;-0.30;99.90;;;;;;5019655;28;20448;-87
2021/12/22 11:59:34;;;;;;;24.37;21.87;;;-0.20;99.90;;;;;;5019875;28;20443;-86
2021/12/22 12:02:38;;;;;;;25.27;22.77;;;-0.20;99.90;;;;;;5020874;28;20526;-86
2021/12/22 12:05:18;;;;;;;26.77;23.93;;;-0.20;99.90;;;;;;5019971;28;20439;-87
2021/12/22 12:07:52;;;;;;;24.77;21.77;;;-0.20;99.90;;;;;;5019375;28;20526;-86
2021/12/22 12:10:49;;;;;;;23.63;21.23;;;-0.10;99.90;;;;;;5020139;28;20527;-87
2021/12/22 12:13:50;;;;;;;25.90;23.13;;;-0.10;99.90;;;;;;5019398;28;20490;-86
2021/12/22 12:22:33;;;;;;;23.83;21.33;;;0.00;99.90;;;;;;5000608;28;20430;-87
2021/12/22 12:25:11;;;;;;;24.77;22.37;;;0.00;99.90;;;;;;5000302;28;20509;-87
2021/12/22 12:27:51;;;;;;;25.13;22.57;;;0.00;99.90;;;;;;5000497;28;20469;-87
2021/12/22 12:30:45;;;;;;;25.13;22.53;;;0.10;99.90;;;;;;5000884;28;21000;-87
2021/12/22 12:36:15;;;;;;;24.30;21.80;;;0.10;99.90;;;;;;5000425;28;20445;-86
2021/12/22 12:38:51;;;;;;;23.97;21.47;;;0.20;99.90;;;;;;4999795;28;20965;-85
2021/12/22 12:41:29;;;;;;;24.47;21.97;;;0.20;99.90;;;;;;4999966;28;20453;-87
2021/12/22 12:44:34;;;;;;;25.17;22.57;;;0.20;99.90;;;;;;4995550;28;20491;-86
2021/12/22 12:50:22;;;;;;;24.43;22.07;;;0.30;99.90;;;;;;5017985;28;20440;-87
2021/12/22 12:52:59;;;;;;;24.93;22.20;;;0.20;99.90;;;;;;5019989;28;20887;-87
2021/12/22 12:55:27;;;;;;;25.57;22.87;;;0.20;99.90;;;;;;5018921;28;20523;-86
2021/12/22 12:58:27;;;;;;;25.20;22.60;;;0.20;99.90;;;;;;5019622;28;20432;-86
2021/12/22 13:00:56;;;;;;;24.23;21.77;;;0.20;99.90;;;;;;5001152;28;20439;-86
2021/12/22 13:03:27;;;;;;;25.00;22.50;;;0.20;99.90;;;;;;5018104;28;20571;-86
2021/12/22 13:05:54;;;;;;;23.63;21.23;;;0.30;99.90;;;;;;5017953;28;20444;-86
2021/12/22 13:08:22;;;;;;;24.83;22.50;;;0.30;99.90;;;;;;5018921;28;20448;-86
2021/12/22 13:10:57;;;;;;;25.63;22.93;;;0.30;99.90;;;;;;5020002;28;20460;-86
2021/12/22 13:15:45;;;;;;;24.80;22.30;;;0.20;99.90;;;;;;5018984;28;20555;-86
2021/12/22 13:16:21;;;;;;;24.53;22.13;;;0.30;99.90;;;;;;5016149;28;20436;-85
2021/12/22 13:18:50;;;;;;;25.37;22.77;;;0.30;99.90;;;;;;5014753;28;20447;-84